Aviation Digital Data Service (ADDS)

Output produced by METARs form (0001 UTC 19 August 2019)
found at http://www.aviationweather.gov/metar/data/
 
METAR text: LEBL 182330Z 05004KT 9999 FEW015 26/23 Q1014 NOSIG
Conditions at: LEBL (BARCELONA AIRPOR, ES) observed 2330 UTC 18 August 2019
Temperature: 26.0°C (79°F)
Dewpoint: 23.0°C (73°F) [RH = 84%]
Pressure (altimeter): 29.94 inches Hg (1014.0 mb)
Winds: from the NE (50 degrees) at 5 MPH (4 knots; 2.1 m/s)
Visibility: 6 or more miles (10+ km)
Ceiling: at least 12,000 feet AGL
Clouds: few clouds at 1500 feet AGL
Weather: no significant weather observed at this time

METAR text: LEBL 182300Z 06006KT 9999 FEW015 26/24 Q1014 NOSIG
Conditions at: LEBL (BARCELONA AIRPOR, ES) observed 2300 UTC 18 August 2019
Temperature: 26.0°C (79°F)
Dewpoint: 24.0°C (75°F) [RH = 89%]
Pressure (altimeter): 29.94 inches Hg (1014.0 mb)
Winds: from the ENE (60 degrees) at 7 MPH (6 knots; 3.1 m/s)
Visibility: 6 or more miles (10+ km)
Ceiling: at least 12,000 feet AGL
Clouds: few clouds at 1500 feet AGL
Weather: no significant weather observed at this time

METAR text: LEBL 182230Z 07004KT 9999 -RA FEW015 26/24 Q1014 NOSIG
Conditions at: LEBL (BARCELONA AIRPOR, ES) observed 2230 UTC 18 August 2019
Temperature: 26.0°C (79°F)
Dewpoint: 24.0°C (75°F) [RH = 89%]
Pressure (altimeter): 29.94 inches Hg (1014.0 mb)
Winds: from the ENE (70 degrees) at 5 MPH (4 knots; 2.1 m/s)
Visibility: 6 or more miles (10+ km)
Ceiling: at least 12,000 feet AGL
Clouds: few clouds at 1500 feet AGL
Weather: -RA  (light rain)

METAR text: LEBL 182200Z 07003KT 9999 FEW015 26/24 Q1013 NOSIG
Conditions at: LEBL (BARCELONA AIRPOR, ES) observed 2200 UTC 18 August 2019
Temperature: 26.0°C (79°F)
Dewpoint: 24.0°C (75°F) [RH = 89%]
Pressure (altimeter): 29.91 inches Hg (1013.0 mb)
Winds: from the ENE (70 degrees) at 3 MPH (3 knots; 1.5 m/s)
Visibility: 6 or more miles (10+ km)
Ceiling: at least 12,000 feet AGL
Clouds: few clouds at 1500 feet AGL
Weather: no significant weather observed at this time

METAR text: LEBL 182130Z 08003KT 9999 FEW015 26/24 Q1013 NOSIG
Conditions at: LEBL (BARCELONA AIRPOR, ES) observed 2130 UTC 18 August 2019
Temperature: 26.0°C (79°F)
Dewpoint: 24.0°C (75°F) [RH = 89%]
Pressure (altimeter): 29.91 inches Hg (1013.0 mb)
Winds: from the E (80 degrees) at 3 MPH (3 knots; 1.5 m/s)
Visibility: 6 or more miles (10+ km)
Ceiling: at least 12,000 feet AGL
Clouds: few clouds at 1500 feet AGL
Weather: no significant weather observed at this time

METAR text: LEBL 182100Z 04005KT 350V080 9999 FEW015 26/24 Q1013 NOSIG
Conditions at: LEBL (BARCELONA AIRPOR, ES) observed 2100 UTC 18 August 2019
Temperature: 26.0°C (79°F)
Dewpoint: 24.0°C (75°F) [RH = 89%]
Pressure (altimeter): 29.91 inches Hg (1013.0 mb)
Winds: from the NE (40 degrees) at 6 MPH (5 knots; 2.6 m/s)
Visibility: 6 or more miles (10+ km)
Ceiling: at least 12,000 feet AGL
Clouds: few clouds at 1500 feet AGL
Weather: no significant weather observed at this time

METAR text: LEBL 182030Z 04004KT 350V080 9999 FEW014 26/23 Q1012 NOSIG
Conditions at: LEBL (BARCELONA AIRPOR, ES) observed 2030 UTC 18 August 2019
Temperature: 26.0°C (79°F)
Dewpoint: 23.0°C (73°F) [RH = 84%]
Pressure (altimeter): 29.88 inches Hg (1012.0 mb)
Winds: from the NE (40 degrees) at 5 MPH (4 knots; 2.1 m/s)
Visibility: 6 or more miles (10+ km)
Ceiling: at least 12,000 feet AGL
Clouds: few clouds at 1400 feet AGL
Weather: no significant weather observed at this time

METAR text: LEBL 182000Z 08003KT 9999 FEW016 27/23 Q1012 NOSIG
Conditions at: LEBL (BARCELONA AIRPOR, ES) observed 2000 UTC 18 August 2019
Temperature: 27.0°C (81°F)
Dewpoint: 23.0°C (73°F) [RH = 79%]
Pressure (altimeter): 29.88 inches Hg (1012.0 mb)
Winds: from the E (80 degrees) at 3 MPH (3 knots; 1.5 m/s)
Visibility: 6 or more miles (10+ km)
Ceiling: at least 12,000 feet AGL
Clouds: few clouds at 1600 feet AGL
Weather: no significant weather observed at this time

METAR text: LEBL 181930Z VRB01KT 9999 FEW016 27/22 Q1012 NOSIG
Conditions at: LEBL (BARCELONA AIRPOR, ES) observed 1930 UTC 18 August 2019
Temperature: 27.0°C (81°F)
Dewpoint: 22.0°C (72°F) [RH = 74%]
Pressure (altimeter): 29.88 inches Hg (1012.0 mb)
Winds: variable direction winds at 1 MPH (1 knots; 0.5 m/s)
Visibility: 6 or more miles (10+ km)
Ceiling: at least 12,000 feet AGL
Clouds: few clouds at 1600 feet AGL
Weather: no significant weather observed at this time

METAR text: LEBL 181900Z 15003KT 9999 FEW016 27/23 Q1011 NOSIG
Conditions at: LEBL (BARCELONA AIRPOR, ES) observed 1900 UTC 18 August 2019
Temperature: 27.0°C (81°F)
Dewpoint: 23.0°C (73°F) [RH = 79%]
Pressure (altimeter): 29.85 inches Hg (1011.0 mb)
Winds: from the SSE (150 degrees) at 3 MPH (3 knots; 1.5 m/s)
Visibility: 6 or more miles (10+ km)
Ceiling: at least 12,000 feet AGL
Clouds: few clouds at 1600 feet AGL
Weather: no significant weather observed at this time

METAR text: LEBL 181830Z 16004KT 110V200 9999 FEW016 27/24 Q1011 NOSIG
Conditions at: LEBL (BARCELONA AIRPOR, ES) observed 1830 UTC 18 August 2019
Temperature: 27.0°C (81°F)
Dewpoint: 24.0°C (75°F) [RH = 84%]
Pressure (altimeter): 29.85 inches Hg (1011.0 mb)
Winds: from the SSE (160 degrees) at 5 MPH (4 knots; 2.1 m/s)
Visibility: 6 or more miles (10+ km)
Ceiling: at least 12,000 feet AGL
Clouds: few clouds at 1600 feet AGL
Weather: no significant weather observed at this time

METAR text: LEBL 181800Z 18005KT 140V210 9999 FEW016 27/23 Q1011 NOSIG
Conditions at: LEBL (BARCELONA AIRPOR, ES) observed 1800 UTC 18 August 2019
Temperature: 27.0°C (81°F)
Dewpoint: 23.0°C (73°F) [RH = 79%]
Pressure (altimeter): 29.85 inches Hg (1011.0 mb)
Winds: from the S (180 degrees) at 6 MPH (5 knots; 2.6 m/s)
Visibility: 6 or more miles (10+ km)
Ceiling: at least 12,000 feet AGL
Clouds: few clouds at 1600 feet AGL
Weather: no significant weather observed at this time

METAR text: LEBL 181730Z 18006KT 140V230 9999 FEW018 27/23 Q1011 NOSIG
Conditions at: LEBL (BARCELONA AIRPOR, ES) observed 1730 UTC 18 August 2019
Temperature: 27.0°C (81°F)
Dewpoint: 23.0°C (73°F) [RH = 79%]
Pressure (altimeter): 29.85 inches Hg (1011.0 mb)
Winds: from the S (180 degrees) at 7 MPH (6 knots; 3.1 m/s)
Visibility: 6 or more miles (10+ km)
Ceiling: at least 12,000 feet AGL
Clouds: few clouds at 1800 feet AGL
Weather: no significant weather observed at this time

METAR text: LEBL 181700Z 19007KT 150V220 9999 FEW015 28/23 Q1011 NOSIG
Conditions at: LEBL (BARCELONA AIRPOR, ES) observed 1700 UTC 18 August 2019
Temperature: 28.0°C (82°F)
Dewpoint: 23.0°C (73°F) [RH = 74%]
Pressure (altimeter): 29.85 inches Hg (1011.0 mb)
Winds: from the S (190 degrees) at 8 MPH (7 knots; 3.6 m/s)
Visibility: 6 or more miles (10+ km)
Ceiling: at least 12,000 feet AGL
Clouds: few clouds at 1500 feet AGL
Weather: no significant weather observed at this time

METAR text: LEBL 181630Z 20009KT 9999 FEW015 28/23 Q1011 NOSIG
Conditions at: LEBL (BARCELONA AIRPOR, ES) observed 1630 UTC 18 August 2019
Temperature: 28.0°C (82°F)
Dewpoint: 23.0°C (73°F) [RH = 74%]
Pressure (altimeter): 29.85 inches Hg (1011.0 mb)
Winds: from the SSW (200 degrees) at 10 MPH (9 knots; 4.6 m/s)
Visibility: 6 or more miles (10+ km)
Ceiling: at least 12,000 feet AGL
Clouds: few clouds at 1500 feet AGL
Weather: no significant weather observed at this time

METAR text: LEBL 181600Z 20009KT 180V240 9999 FEW015 28/23 Q1011 NOSIG
Conditions at: LEBL (BARCELONA AIRPOR, ES) observed 1600 UTC 18 August 2019
Temperature: 28.0°C (82°F)
Dewpoint: 23.0°C (73°F) [RH = 74%]
Pressure (altimeter): 29.85 inches Hg (1011.0 mb)
Winds: from the SSW (200 degrees) at 10 MPH (9 knots; 4.6 m/s)
Visibility: 6 or more miles (10+ km)
Ceiling: at least 12,000 feet AGL
Clouds: few clouds at 1500 feet AGL
Weather: no significant weather observed at this time

METAR text: LEBL 181530Z 21011KT 9999 FEW015 29/23 Q1011 NOSIG
Conditions at: LEBL (BARCELONA AIRPOR, ES) observed 1530 UTC 18 August 2019
Temperature: 29.0°C (84°F)
Dewpoint: 23.0°C (73°F) [RH = 70%]
Pressure (altimeter): 29.85 inches Hg (1011.0 mb)
Winds: from the SSW (210 degrees) at 13 MPH (11 knots; 5.7 m/s)
Visibility: 6 or more miles (10+ km)
Ceiling: at least 12,000 feet AGL
Clouds: few clouds at 1500 feet AGL
Weather: no significant weather observed at this time

METAR text: LEBL 181500Z 20013KT 170V230 9999 FEW015 29/23 Q1012 NOSIG
Conditions at: LEBL (BARCELONA AIRPOR, ES) observed 1500 UTC 18 August 2019
Temperature: 29.0°C (84°F)
Dewpoint: 23.0°C (73°F) [RH = 70%]
Pressure (altimeter): 29.88 inches Hg (1012.0 mb)
Winds: from the SSW (200 degrees) at 15 MPH (13 knots; 6.7 m/s)
Visibility: 6 or more miles (10+ km)
Ceiling: at least 12,000 feet AGL
Clouds: few clouds at 1500 feet AGL
Weather: no significant weather observed at this time

METAR text: LEBL 181430Z 22013KT 9999 FEW015 29/23 Q1012 NOSIG
Conditions at: LEBL (BARCELONA AIRPOR, ES) observed 1430 UTC 18 August 2019
Temperature: 29.0°C (84°F)
Dewpoint: 23.0°C (73°F) [RH = 70%]
Pressure (altimeter): 29.88 inches Hg (1012.0 mb)
Winds: from the SW (220 degrees) at 15 MPH (13 knots; 6.7 m/s)
Visibility: 6 or more miles (10+ km)
Ceiling: at least 12,000 feet AGL
Clouds: few clouds at 1500 feet AGL
Weather: no significant weather observed at this time

METAR text: LEBL 181400Z 22013KT 9999 FEW015 29/23 Q1012 NOSIG
Conditions at: LEBL (BARCELONA AIRPOR, ES) observed 1400 UTC 18 August 2019
Temperature: 29.0°C (84°F)
Dewpoint: 23.0°C (73°F) [RH = 70%]
Pressure (altimeter): 29.88 inches Hg (1012.0 mb)
Winds: from the SW (220 degrees) at 15 MPH (13 knots; 6.7 m/s)
Visibility: 6 or more miles (10+ km)
Ceiling: at least 12,000 feet AGL
Clouds: few clouds at 1500 feet AGL
Weather: no significant weather observed at this time

METAR text: LEBL 181330Z 21012KT 9999 FEW015 28/23 Q1012 NOSIG
Conditions at: LEBL (BARCELONA AIRPOR, ES) observed 1330 UTC 18 August 2019
Temperature: 28.0°C (82°F)
Dewpoint: 23.0°C (73°F) [RH = 74%]
Pressure (altimeter): 29.88 inches Hg (1012.0 mb)
Winds: from the SSW (210 degrees) at 14 MPH (12 knots; 6.2 m/s)
Visibility: 6 or more miles (10+ km)
Ceiling: at least 12,000 feet AGL
Clouds: few clouds at 1500 feet AGL
Weather: no significant weather observed at this time

METAR text: LEBL 181300Z 21013KT 9999 FEW015 29/24 Q1012 NOSIG
Conditions at: LEBL (BARCELONA AIRPOR, ES) observed 1300 UTC 18 August 2019
Temperature: 29.0°C (84°F)
Dewpoint: 24.0°C (75°F) [RH = 74%]
Pressure (altimeter): 29.88 inches Hg (1012.0 mb)
Winds: from the SSW (210 degrees) at 15 MPH (13 knots; 6.7 m/s)
Visibility: 6 or more miles (10+ km)
Ceiling: at least 12,000 feet AGL
Clouds: few clouds at 1500 feet AGL
Weather: no significant weather observed at this time

METAR text: LEBL 181230Z 21012KT 170V240 9999 FEW018 29/24 Q1012 NOSIG
Conditions at: LEBL (BARCELONA AIRPOR, ES) observed 1230 UTC 18 August 2019
Temperature: 29.0°C (84°F)
Dewpoint: 24.0°C (75°F) [RH = 74%]
Pressure (altimeter): 29.88 inches Hg (1012.0 mb)
Winds: from the SSW (210 degrees) at 14 MPH (12 knots; 6.2 m/s)
Visibility: 6 or more miles (10+ km)
Ceiling: at least 12,000 feet AGL
Clouds: few clouds at 1800 feet AGL
Weather: no significant weather observed at this time

METAR text: LEBL 181200Z 21012KT 170V240 9999 FEW018 29/23 Q1013 NOSIG
Conditions at: LEBL (BARCELONA AIRPOR, ES) observed 1200 UTC 18 August 2019
Temperature: 29.0°C (84°F)
Dewpoint: 23.0°C (73°F) [RH = 70%]
Pressure (altimeter): 29.91 inches Hg (1013.0 mb)
Winds: from the SSW (210 degrees) at 14 MPH (12 knots; 6.2 m/s)
Visibility: 6 or more miles (10+ km)
Ceiling: at least 12,000 feet AGL
Clouds: few clouds at 1800 feet AGL
Weather: no significant weather observed at this time

METAR text: LEBL 181130Z 21011KT 170V240 9999 FEW012 SCT020 28/23 Q1013 NOSIG
Conditions at: LEBL (BARCELONA AIRPOR, ES) observed 1130 UTC 18 August 2019
Temperature: 28.0°C (82°F)
Dewpoint: 23.0°C (73°F) [RH = 74%]
Pressure (altimeter): 29.91 inches Hg (1013.0 mb)
Winds: from the SSW (210 degrees) at 13 MPH (11 knots; 5.7 m/s)
Visibility: 6 or more miles (10+ km)
Ceiling: at least 12,000 feet AGL
Clouds: few clouds at 1200 feet AGL
scattered clouds at 2000 feet AGL
Weather: no significant weather observed at this time

METAR text: LEBL 181100Z 19008KT 160V220 9999 FEW014 SCT020 28/24 Q1013 NOSIG
Conditions at: LEBL (BARCELONA AIRPOR, ES) observed 1100 UTC 18 August 2019
Temperature: 28.0°C (82°F)
Dewpoint: 24.0°C (75°F) [RH = 79%]
Pressure (altimeter): 29.91 inches Hg (1013.0 mb)
Winds: from the S (190 degrees) at 9 MPH (8 knots; 4.1 m/s)
Visibility: 6 or more miles (10+ km)
Ceiling: at least 12,000 feet AGL
Clouds: few clouds at 1400 feet AGL
scattered clouds at 2000 feet AGL
Weather: no significant weather observed at this time

METAR text: LEBL 181030Z 18007KT 140V230 9999 FEW015 SCT020 28/24 Q1013 NOSIG
Conditions at: LEBL (BARCELONA AIRPOR, ES) observed 1030 UTC 18 August 2019
Temperature: 28.0°C (82°F)
Dewpoint: 24.0°C (75°F) [RH = 79%]
Pressure (altimeter): 29.91 inches Hg (1013.0 mb)
Winds: from the S (180 degrees) at 8 MPH (7 knots; 3.6 m/s)
Visibility: 6 or more miles (10+ km)
Ceiling: at least 12,000 feet AGL
Clouds: few clouds at 1500 feet AGL
scattered clouds at 2000 feet AGL
Weather: no significant weather observed at this time

METAR text: LEBL 181000Z 19010KT 170V230 9999 FEW015 SCT020 27/23 Q1013 NOSIG
Conditions at: LEBL (BARCELONA AIRPOR, ES) observed 1000 UTC 18 August 2019
Temperature: 27.0°C (81°F)
Dewpoint: 23.0°C (73°F) [RH = 79%]
Pressure (altimeter): 29.91 inches Hg (1013.0 mb)
Winds: from the S (190 degrees) at 12 MPH (10 knots; 5.1 m/s)
Visibility: 6 or more miles (10+ km)
Ceiling: at least 12,000 feet AGL
Clouds: few clouds at 1500 feet AGL
scattered clouds at 2000 feet AGL
Weather: no significant weather observed at this time

METAR text: LEBL 180930Z 21008KT 9999 FEW018 27/23 Q1013 NOSIG
Conditions at: LEBL (BARCELONA AIRPOR, ES) observed 0930 UTC 18 August 2019
Temperature: 27.0°C (81°F)
Dewpoint: 23.0°C (73°F) [RH = 79%]
Pressure (altimeter): 29.91 inches Hg (1013.0 mb)
Winds: from the SSW (210 degrees) at 9 MPH (8 knots; 4.1 m/s)
Visibility: 6 or more miles (10+ km)
Ceiling: at least 12,000 feet AGL
Clouds: few clouds at 1800 feet AGL
Weather: no significant weather observed at this time

METAR text: LEBL 180900Z 21007KT 180V260 9999 FEW018 27/23 Q1013 NOSIG
Conditions at: LEBL (BARCELONA AIRPOR, ES) observed 0900 UTC 18 August 2019
Temperature: 27.0°C (81°F)
Dewpoint: 23.0°C (73°F) [RH = 79%]
Pressure (altimeter): 29.91 inches Hg (1013.0 mb)
Winds: from the SSW (210 degrees) at 8 MPH (7 knots; 3.6 m/s)
Visibility: 6 or more miles (10+ km)
Ceiling: at least 12,000 feet AGL
Clouds: few clouds at 1800 feet AGL
Weather: no significant weather observed at this time

METAR text: LEBL 180830Z 26006KT 200V290 9999 FEW016 27/23 Q1013 NOSIG
Conditions at: LEBL (BARCELONA AIRPOR, ES) observed 0830 UTC 18 August 2019
Temperature: 27.0°C (81°F)
Dewpoint: 23.0°C (73°F) [RH = 79%]
Pressure (altimeter): 29.91 inches Hg (1013.0 mb)
Winds: from the W (260 degrees) at 7 MPH (6 knots; 3.1 m/s)
Visibility: 6 or more miles (10+ km)
Ceiling: at least 12,000 feet AGL
Clouds: few clouds at 1600 feet AGL
Weather: no significant weather observed at this time

METAR text: LEBL 180800Z 32003KT 240V020 9999 FEW015 27/22 Q1013 NOSIG
Conditions at: LEBL (BARCELONA AIRPOR, ES) observed 0800 UTC 18 August 2019
Temperature: 27.0°C (81°F)
Dewpoint: 22.0°C (72°F) [RH = 74%]
Pressure (altimeter): 29.91 inches Hg (1013.0 mb)
Winds: from the NW (320 degrees) at 3 MPH (3 knots; 1.5 m/s)
Visibility: 6 or more miles (10+ km)
Ceiling: at least 12,000 feet AGL
Clouds: few clouds at 1500 feet AGL
Weather: no significant weather observed at this time

METAR text: LEBL 180730Z 33005KT 280V030 9999 FEW015 25/21 Q1013 NOSIG
Conditions at: LEBL (BARCELONA AIRPOR, ES) observed 0730 UTC 18 August 2019
Temperature: 25.0°C (77°F)
Dewpoint: 21.0°C (70°F) [RH = 79%]
Pressure (altimeter): 29.91 inches Hg (1013.0 mb)
Winds: from the NNW (330 degrees) at 6 MPH (5 knots; 2.6 m/s)
Visibility: 6 or more miles (10+ km)
Ceiling: at least 12,000 feet AGL
Clouds: few clouds at 1500 feet AGL
Weather: no significant weather observed at this time

METAR text: LEBL 180700Z 33004KT 280V070 9999 FEW015 24/21 Q1013 NOSIG
Conditions at: LEBL (BARCELONA AIRPOR, ES) observed 0700 UTC 18 August 2019
Temperature: 24.0°C (75°F)
Dewpoint: 21.0°C (70°F) [RH = 83%]
Pressure (altimeter): 29.91 inches Hg (1013.0 mb)
Winds: from the NNW (330 degrees) at 5 MPH (4 knots; 2.1 m/s)
Visibility: 6 or more miles (10+ km)
Ceiling: at least 12,000 feet AGL
Clouds: few clouds at 1500 feet AGL
Weather: no significant weather observed at this time

METAR text: LEBL 180630Z 33005KT 9999 FEW015 24/20 Q1013 NOSIG
Conditions at: LEBL (BARCELONA AIRPOR, ES) observed 0630 UTC 18 August 2019
Temperature: 24.0°C (75°F)
Dewpoint: 20.0°C (68°F) [RH = 78%]
Pressure (altimeter): 29.91 inches Hg (1013.0 mb)
Winds: from the NNW (330 degrees) at 6 MPH (5 knots; 2.6 m/s)
Visibility: 6 or more miles (10+ km)
Ceiling: at least 12,000 feet AGL
Clouds: few clouds at 1500 feet AGL
Weather: no significant weather observed at this time

METAR text: LEBL 180600Z 33006KT 300V360 9999 FEW015 23/20 Q1013 NOSIG
Conditions at: LEBL (BARCELONA AIRPOR, ES) observed 0600 UTC 18 August 2019
Temperature: 23.0°C (73°F)
Dewpoint: 20.0°C (68°F) [RH = 83%]
Pressure (altimeter): 29.91 inches Hg (1013.0 mb)
Winds: from the NNW (330 degrees) at 7 MPH (6 knots; 3.1 m/s)
Visibility: 6 or more miles (10+ km)
Ceiling: at least 12,000 feet AGL
Clouds: few clouds at 1500 feet AGL
Weather: no significant weather observed at this time

METAR text: LEBL 180530Z 33006KT 9999 FEW015 22/20 Q1013 NOSIG
Conditions at: LEBL (BARCELONA AIRPOR, ES) observed 0530 UTC 18 August 2019
Temperature: 22.0°C (72°F)
Dewpoint: 20.0°C (68°F) [RH = 88%]
Pressure (altimeter): 29.91 inches Hg (1013.0 mb)
Winds: from the NNW (330 degrees) at 7 MPH (6 knots; 3.1 m/s)
Visibility: 6 or more miles (10+ km)
Ceiling: at least 12,000 feet AGL
Clouds: few clouds at 1500 feet AGL
Weather: no significant weather observed at this time

METAR text: LEBL 180500Z 33006KT 9999 FEW015 23/20 Q1013 NOSIG
Conditions at: LEBL (BARCELONA AIRPOR, ES) observed 0500 UTC 18 August 2019
Temperature: 23.0°C (73°F)
Dewpoint: 20.0°C (68°F) [RH = 83%]
Pressure (altimeter): 29.91 inches Hg (1013.0 mb)
Winds: from the NNW (330 degrees) at 7 MPH (6 knots; 3.1 m/s)
Visibility: 6 or more miles (10+ km)
Ceiling: at least 12,000 feet AGL
Clouds: few clouds at 1500 feet AGL
Weather: no significant weather observed at this time

METAR text: LEBL 180430Z 33007KT 9999 FEW015 23/20 Q1013 NOSIG
Conditions at: LEBL (BARCELONA AIRPOR, ES) observed 0430 UTC 18 August 2019
Temperature: 23.0°C (73°F)
Dewpoint: 20.0°C (68°F) [RH = 83%]
Pressure (altimeter): 29.91 inches Hg (1013.0 mb)
Winds: from the NNW (330 degrees) at 8 MPH (7 knots; 3.6 m/s)
Visibility: 6 or more miles (10+ km)
Ceiling: at least 12,000 feet AGL
Clouds: few clouds at 1500 feet AGL
Weather: no significant weather observed at this time

METAR text: LEBL 180400Z 33004KT 9999 FEW015 22/20 Q1013 NOSIG
Conditions at: LEBL (BARCELONA AIRPOR, ES) observed 0400 UTC 18 August 2019
Temperature: 22.0°C (72°F)
Dewpoint: 20.0°C (68°F) [RH = 88%]
Pressure (altimeter): 29.91 inches Hg (1013.0 mb)
Winds: from the NNW (330 degrees) at 5 MPH (4 knots; 2.1 m/s)
Visibility: 6 or more miles (10+ km)
Ceiling: at least 12,000 feet AGL
Clouds: few clouds at 1500 feet AGL
Weather: no significant weather observed at this time

METAR text: LEBL 180330Z 33006KT 9999 FEW015 23/20 Q1013 NOSIG
Conditions at: LEBL (BARCELONA AIRPOR, ES) observed 0330 UTC 18 August 2019
Temperature: 23.0°C (73°F)
Dewpoint: 20.0°C (68°F) [RH = 83%]
Pressure (altimeter): 29.91 inches Hg (1013.0 mb)
Winds: from the NNW (330 degrees) at 7 MPH (6 knots; 3.1 m/s)
Visibility: 6 or more miles (10+ km)
Ceiling: at least 12,000 feet AGL
Clouds: few clouds at 1500 feet AGL
Weather: no significant weather observed at this time

METAR text: LEBL 180300Z 32005KT 9999 FEW015 22/20 Q1013 NOSIG
Conditions at: LEBL (BARCELONA AIRPOR, ES) observed 0300 UTC 18 August 2019
Temperature: 22.0°C (72°F)
Dewpoint: 20.0°C (68°F) [RH = 88%]
Pressure (altimeter): 29.91 inches Hg (1013.0 mb)
Winds: from the NW (320 degrees) at 6 MPH (5 knots; 2.6 m/s)
Visibility: 6 or more miles (10+ km)
Ceiling: at least 12,000 feet AGL
Clouds: few clouds at 1500 feet AGL
Weather: no significant weather observed at this time

METAR text: LEBL 180230Z 32005KT 9999 FEW015 23/20 Q1013 NOSIG
Conditions at: LEBL (BARCELONA AIRPOR, ES) observed 0230 UTC 18 August 2019
Temperature: 23.0°C (73°F)
Dewpoint: 20.0°C (68°F) [RH = 83%]
Pressure (altimeter): 29.91 inches Hg (1013.0 mb)
Winds: from the NW (320 degrees) at 6 MPH (5 knots; 2.6 m/s)
Visibility: 6 or more miles (10+ km)
Ceiling: at least 12,000 feet AGL
Clouds: few clouds at 1500 feet AGL
Weather: no significant weather observed at this time

METAR text: LEBL 180200Z 32001KT 9999 FEW015 23/20 Q1014 NOSIG
Conditions at: LEBL (BARCELONA AIRPOR, ES) observed 0200 UTC 18 August 2019
Temperature: 23.0°C (73°F)
Dewpoint: 20.0°C (68°F) [RH = 83%]
Pressure (altimeter): 29.94 inches Hg (1014.0 mb)
Winds: from the NW (320 degrees) at 1 MPH (1 knots; 0.5 m/s)
Visibility: 6 or more miles (10+ km)
Ceiling: at least 12,000 feet AGL
Clouds: few clouds at 1500 feet AGL
Weather: no significant weather observed at this time

METAR text: LEBL 180130Z VRB01KT 9999 FEW015 23/20 Q1014 NOSIG
Conditions at: LEBL (BARCELONA AIRPOR, ES) observed 0130 UTC 18 August 2019
Temperature: 23.0°C (73°F)
Dewpoint: 20.0°C (68°F) [RH = 83%]
Pressure (altimeter): 29.94 inches Hg (1014.0 mb)
Winds: variable direction winds at 1 MPH (1 knots; 0.5 m/s)
Visibility: 6 or more miles (10+ km)
Ceiling: at least 12,000 feet AGL
Clouds: few clouds at 1500 feet AGL
Weather: no significant weather observed at this time

METAR text: LEBL 180100Z 32004KT 9999 FEW015 23/20 Q1014 NOSIG
Conditions at: LEBL (BARCELONA AIRPOR, ES) observed 0100 UTC 18 August 2019
Temperature: 23.0°C (73°F)
Dewpoint: 20.0°C (68°F) [RH = 83%]
Pressure (altimeter): 29.94 inches Hg (1014.0 mb)
Winds: from the NW (320 degrees) at 5 MPH (4 knots; 2.1 m/s)
Visibility: 6 or more miles (10+ km)
Ceiling: at least 12,000 feet AGL
Clouds: few clouds at 1500 feet AGL
Weather: no significant weather observed at this time

METAR text: LEBL 180030Z 32001KT 9999 FEW015 23/20 Q1014 NOSIG
Conditions at: LEBL (BARCELONA AIRPOR, ES) observed 0030 UTC 18 August 2019
Temperature: 23.0°C (73°F)
Dewpoint: 20.0°C (68°F) [RH = 83%]
Pressure (altimeter): 29.94 inches Hg (1014.0 mb)
Winds: from the NW (320 degrees) at 1 MPH (1 knots; 0.5 m/s)
Visibility: 6 or more miles (10+ km)
Ceiling: at least 12,000 feet AGL
Clouds: few clouds at 1500 feet AGL
Weather: no significant weather observed at this time

METAR text: LEBL 180000Z 32003KT 300V360 9999 FEW015 24/20 Q1014 NOSIG
Conditions at: LEBL (BARCELONA AIRPOR, ES) observed 0000 UTC 18 August 2019
Temperature: 24.0°C (75°F)
Dewpoint: 20.0°C (68°F) [RH = 78%]
Pressure (altimeter): 29.94 inches Hg (1014.0 mb)
Winds: from the NW (320 degrees) at 3 MPH (3 knots; 1.5 m/s)
Visibility: 6 or more miles (10+ km)
Ceiling: at least 12,000 feet AGL
Clouds: few clouds at 1500 feet AGL
Weather: no significant weather observed at this time

METAR text: LEBL 172330Z VRB01KT 9999 FEW015 24/20 Q1014 NOSIG
Conditions at: LEBL (BARCELONA AIRPOR, ES) observed 2330 UTC 17 August 2019
Temperature: 24.0°C (75°F)
Dewpoint: 20.0°C (68°F) [RH = 78%]
Pressure (altimeter): 29.94 inches Hg (1014.0 mb)
Winds: variable direction winds at 1 MPH (1 knots; 0.5 m/s)
Visibility: 6 or more miles (10+ km)
Ceiling: at least 12,000 feet AGL
Clouds: few clouds at 1500 feet AGL
Weather: no significant weather observed at this time

METAR text: LEBL 172300Z 00000KT 9999 FEW015 24/20 Q1014 NOSIG
Conditions at: LEBL (BARCELONA AIRPOR, ES) observed 2300 UTC 17 August 2019
Temperature: 24.0°C (75°F)
Dewpoint: 20.0°C (68°F) [RH = 78%]
Pressure (altimeter): 29.94 inches Hg (1014.0 mb)
Winds: calm
Visibility: 6 or more miles (10+ km)
Ceiling: at least 12,000 feet AGL
Clouds: few clouds at 1500 feet AGL
Weather: no significant weather observed at this time

METAR text: LEBL 172230Z 00000KT 9999 FEW015 24/21 Q1014 NOSIG
Conditions at: LEBL (BARCELONA AIRPOR, ES) observed 2230 UTC 17 August 2019
Temperature: 24.0°C (75°F)
Dewpoint: 21.0°C (70°F) [RH = 83%]
Pressure (altimeter): 29.94 inches Hg (1014.0 mb)
Winds: calm
Visibility: 6 or more miles (10+ km)
Ceiling: at least 12,000 feet AGL
Clouds: few clouds at 1500 feet AGL
Weather: no significant weather observed at this time

METAR text: LEBL 172200Z 00000KT 9999 FEW015 24/21 Q1014 NOSIG
Conditions at: LEBL (BARCELONA AIRPOR, ES) observed 2200 UTC 17 August 2019
Temperature: 24.0°C (75°F)
Dewpoint: 21.0°C (70°F) [RH = 83%]
Pressure (altimeter): 29.94 inches Hg (1014.0 mb)
Winds: calm
Visibility: 6 or more miles (10+ km)
Ceiling: at least 12,000 feet AGL
Clouds: few clouds at 1500 feet AGL
Weather: no significant weather observed at this time

METAR text: LEBL 172130Z 00000KT 9999 FEW016 25/21 Q1014 NOSIG
Conditions at: LEBL (BARCELONA AIRPOR, ES) observed 2130 UTC 17 August 2019
Temperature: 25.0°C (77°F)
Dewpoint: 21.0°C (70°F) [RH = 79%]
Pressure (altimeter): 29.94 inches Hg (1014.0 mb)
Winds: calm
Visibility: 6 or more miles (10+ km)
Ceiling: at least 12,000 feet AGL
Clouds: few clouds at 1600 feet AGL
Weather: no significant weather observed at this time

METAR text: LEBL 172100Z VRB02KT 9999 FEW016 26/23 Q1014 NOSIG
Conditions at: LEBL (BARCELONA AIRPOR, ES) observed 2100 UTC 17 August 2019
Temperature: 26.0°C (79°F)
Dewpoint: 23.0°C (73°F) [RH = 84%]
Pressure (altimeter): 29.94 inches Hg (1014.0 mb)
Winds: variable direction winds at 2 MPH (2 knots; 1.0 m/s)
Visibility: 6 or more miles (10+ km)
Ceiling: at least 12,000 feet AGL
Clouds: few clouds at 1600 feet AGL
Weather: no significant weather observed at this time

METAR text: LEBL 172030Z 20003KT 9999 FEW016 26/23 Q1014 NOSIG
Conditions at: LEBL (BARCELONA AIRPOR, ES) observed 2030 UTC 17 August 2019
Temperature: 26.0°C (79°F)
Dewpoint: 23.0°C (73°F) [RH = 84%]
Pressure (altimeter): 29.94 inches Hg (1014.0 mb)
Winds: from the SSW (200 degrees) at 3 MPH (3 knots; 1.5 m/s)
Visibility: 6 or more miles (10+ km)
Ceiling: at least 12,000 feet AGL
Clouds: few clouds at 1600 feet AGL
Weather: no significant weather observed at this time

METAR text: LEBL 172000Z 21004KT 9999 FEW017 26/23 Q1014 NOSIG
Conditions at: LEBL (BARCELONA AIRPOR, ES) observed 2000 UTC 17 August 2019
Temperature: 26.0°C (79°F)
Dewpoint: 23.0°C (73°F) [RH = 84%]
Pressure (altimeter): 29.94 inches Hg (1014.0 mb)
Winds: from the SSW (210 degrees) at 5 MPH (4 knots; 2.1 m/s)
Visibility: 6 or more miles (10+ km)
Ceiling: at least 12,000 feet AGL
Clouds: few clouds at 1700 feet AGL
Weather: no significant weather observed at this time

METAR text: LEBL 171930Z 21005KT 170V230 9999 FEW018 26/22 Q1014 NOSIG
Conditions at: LEBL (BARCELONA AIRPOR, ES) observed 1930 UTC 17 August 2019
Temperature: 26.0°C (79°F)
Dewpoint: 22.0°C (72°F) [RH = 79%]
Pressure (altimeter): 29.94 inches Hg (1014.0 mb)
Winds: from the SSW (210 degrees) at 6 MPH (5 knots; 2.6 m/s)
Visibility: 6 or more miles (10+ km)
Ceiling: at least 12,000 feet AGL
Clouds: few clouds at 1800 feet AGL
Weather: no significant weather observed at this time

METAR text: LEBL 171900Z 21007KT 9999 FEW018 26/22 Q1014 NOSIG
Conditions at: LEBL (BARCELONA AIRPOR, ES) observed 1900 UTC 17 August 2019
Temperature: 26.0°C (79°F)
Dewpoint: 22.0°C (72°F) [RH = 79%]
Pressure (altimeter): 29.94 inches Hg (1014.0 mb)
Winds: from the SSW (210 degrees) at 8 MPH (7 knots; 3.6 m/s)
Visibility: 6 or more miles (10+ km)
Ceiling: at least 12,000 feet AGL
Clouds: few clouds at 1800 feet AGL
Weather: no significant weather observed at this time

METAR text: LEBL 171830Z 22007KT CAVOK 27/22 Q1014 NOSIG
Conditions at: LEBL (BARCELONA AIRPOR, ES) observed 1830 UTC 17 August 2019
Temperature: 27.0°C (81°F)
Dewpoint: 22.0°C (72°F) [RH = 74%]
Pressure (altimeter): 29.94 inches Hg (1014.0 mb)
Winds: from the SW (220 degrees) at 8 MPH (7 knots; 3.6 m/s)
Visibility: 6 or more miles (10+ km)
Ceiling: ceiling and visibility are OK
Clouds: unknown
Weather: no significant weather observed at this time

METAR text: LEBL 171800Z 22009KT CAVOK 27/22 Q1014 NOSIG
Conditions at: LEBL (BARCELONA AIRPOR, ES) observed 1800 UTC 17 August 2019
Temperature: 27.0°C (81°F)
Dewpoint: 22.0°C (72°F) [RH = 74%]
Pressure (altimeter): 29.94 inches Hg (1014.0 mb)
Winds: from the SW (220 degrees) at 10 MPH (9 knots; 4.6 m/s)
Visibility: 6 or more miles (10+ km)
Ceiling: ceiling and visibility are OK
Clouds: unknown
Weather: no significant weather observed at this time

METAR text: LEBL 171730Z 22010KT 9999 FEW020 27/22 Q1014 NOSIG
Conditions at: LEBL (BARCELONA AIRPOR, ES) observed 1730 UTC 17 August 2019
Temperature: 27.0°C (81°F)
Dewpoint: 22.0°C (72°F) [RH = 74%]
Pressure (altimeter): 29.94 inches Hg (1014.0 mb)
Winds: from the SW (220 degrees) at 12 MPH (10 knots; 5.1 m/s)
Visibility: 6 or more miles (10+ km)
Ceiling: at least 12,000 feet AGL
Clouds: few clouds at 2000 feet AGL
Weather: no significant weather observed at this time

METAR text: LEBL 171700Z 22010KT 9999 FEW020 28/21 Q1014 NOSIG
Conditions at: LEBL (BARCELONA AIRPOR, ES) observed 1700 UTC 17 August 2019
Temperature: 28.0°C (82°F)
Dewpoint: 21.0°C (70°F) [RH = 66%]
Pressure (altimeter): 29.94 inches Hg (1014.0 mb)
Winds: from the SW (220 degrees) at 12 MPH (10 knots; 5.1 m/s)
Visibility: 6 or more miles (10+ km)
Ceiling: at least 12,000 feet AGL
Clouds: few clouds at 2000 feet AGL
Weather: no significant weather observed at this time

METAR text: LEBL 171630Z 23012KT 9999 FEW020 28/22 Q1014 NOSIG
Conditions at: LEBL (BARCELONA AIRPOR, ES) observed 1630 UTC 17 August 2019
Temperature: 28.0°C (82°F)
Dewpoint: 22.0°C (72°F) [RH = 70%]
Pressure (altimeter): 29.94 inches Hg (1014.0 mb)
Winds: from the SW (230 degrees) at 14 MPH (12 knots; 6.2 m/s)
Visibility: 6 or more miles (10+ km)
Ceiling: at least 12,000 feet AGL
Clouds: few clouds at 2000 feet AGL
Weather: no significant weather observed at this time

METAR text: LEBL 171600Z 22012KT 190V260 9999 FEW019 28/22 Q1015 NOSIG
Conditions at: LEBL (BARCELONA AIRPOR, ES) observed 1600 UTC 17 August 2019
Temperature: 28.0°C (82°F)
Dewpoint: 22.0°C (72°F) [RH = 70%]
Pressure (altimeter): 29.97 inches Hg (1015.0 mb)
Winds: from the SW (220 degrees) at 14 MPH (12 knots; 6.2 m/s)
Visibility: 6 or more miles (10+ km)
Ceiling: at least 12,000 feet AGL
Clouds: few clouds at 1900 feet AGL
Weather: no significant weather observed at this time

METAR text: LEBL 171530Z 22012KT 190V250 9999 FEW018 28/21 Q1015 NOSIG
Conditions at: LEBL (BARCELONA AIRPOR, ES) observed 1530 UTC 17 August 2019
Temperature: 28.0°C (82°F)
Dewpoint: 21.0°C (70°F) [RH = 66%]
Pressure (altimeter): 29.97 inches Hg (1015.0 mb)
Winds: from the SW (220 degrees) at 14 MPH (12 knots; 6.2 m/s)
Visibility: 6 or more miles (10+ km)
Ceiling: at least 12,000 feet AGL
Clouds: few clouds at 1800 feet AGL
Weather: no significant weather observed at this time

METAR text: LEBL 171500Z 22012KT 180V250 9999 FEW018 28/22 Q1015 NOSIG
Conditions at: LEBL (BARCELONA AIRPOR, ES) observed 1500 UTC 17 August 2019
Temperature: 28.0°C (82°F)
Dewpoint: 22.0°C (72°F) [RH = 70%]
Pressure (altimeter): 29.97 inches Hg (1015.0 mb)
Winds: from the SW (220 degrees) at 14 MPH (12 knots; 6.2 m/s)
Visibility: 6 or more miles (10+ km)
Ceiling: at least 12,000 feet AGL
Clouds: few clouds at 1800 feet AGL
Weather: no significant weather observed at this time

METAR text: LEBL 171430Z 21013KT 9999 FEW018 28/22 Q1015 NOSIG
Conditions at: LEBL (BARCELONA AIRPOR, ES) observed 1430 UTC 17 August 2019
Temperature: 28.0°C (82°F)
Dewpoint: 22.0°C (72°F) [RH = 70%]
Pressure (altimeter): 29.97 inches Hg (1015.0 mb)
Winds: from the SSW (210 degrees) at 15 MPH (13 knots; 6.7 m/s)
Visibility: 6 or more miles (10+ km)
Ceiling: at least 12,000 feet AGL
Clouds: few clouds at 1800 feet AGL
Weather: no significant weather observed at this time

METAR text: LEBL 171400Z 21014KT 9999 FEW017 28/23 Q1015 NOSIG
Conditions at: LEBL (BARCELONA AIRPOR, ES) observed 1400 UTC 17 August 2019
Temperature: 28.0°C (82°F)
Dewpoint: 23.0°C (73°F) [RH = 74%]
Pressure (altimeter): 29.97 inches Hg (1015.0 mb)
Winds: from the SSW (210 degrees) at 16 MPH (14 knots; 7.2 m/s)
Visibility: 6 or more miles (10+ km)
Ceiling: at least 12,000 feet AGL
Clouds: few clouds at 1700 feet AGL
Weather: no significant weather observed at this time

METAR text: LEBL 171330Z 21013KT 9999 FEW016 28/23 Q1015 NOSIG
Conditions at: LEBL (BARCELONA AIRPOR, ES) observed 1330 UTC 17 August 2019
Temperature: 28.0°C (82°F)
Dewpoint: 23.0°C (73°F) [RH = 74%]
Pressure (altimeter): 29.97 inches Hg (1015.0 mb)
Winds: from the SSW (210 degrees) at 15 MPH (13 knots; 6.7 m/s)
Visibility: 6 or more miles (10+ km)
Ceiling: at least 12,000 feet AGL
Clouds: few clouds at 1600 feet AGL
Weather: no significant weather observed at this time

METAR text: LEBL 171300Z 22013KT 9999 FEW016 28/23 Q1015 NOSIG
Conditions at: LEBL (BARCELONA AIRPOR, ES) observed 1300 UTC 17 August 2019
Temperature: 28.0°C (82°F)
Dewpoint: 23.0°C (73°F) [RH = 74%]
Pressure (altimeter): 29.97 inches Hg (1015.0 mb)
Winds: from the SW (220 degrees) at 15 MPH (13 knots; 6.7 m/s)
Visibility: 6 or more miles (10+ km)
Ceiling: at least 12,000 feet AGL
Clouds: few clouds at 1600 feet AGL
Weather: no significant weather observed at this time

METAR text: LEBL 171230Z 21013KT 170V240 9999 FEW016 28/23 Q1016 NOSIG
Conditions at: LEBL (BARCELONA AIRPOR, ES) observed 1230 UTC 17 August 2019
Temperature: 28.0°C (82°F)
Dewpoint: 23.0°C (73°F) [RH = 74%]
Pressure (altimeter): 30.00 inches Hg (1016.0 mb)
Winds: from the SSW (210 degrees) at 15 MPH (13 knots; 6.7 m/s)
Visibility: 6 or more miles (10+ km)
Ceiling: at least 12,000 feet AGL
Clouds: few clouds at 1600 feet AGL
Weather: no significant weather observed at this time

Forecast for: LEBL (BARCELONA AIRPOR, ES)
Text: TAF LEBL 182300Z 1900/1924 06006KT 9999 FEW020 TX29/1912Z TN23/1906Z
Forecast period: 0000 to 0300 UTC 19 August 2019
Forecast type: FROM: standard forecast or significant change
Winds: from the ENE (60 degrees) at 7 MPH (6 knots; 3.1 m/s)
Visibility: 6 or more miles 10+ km)
Ceiling: at least 12,000 feet AGL
Clouds: few clouds at 2000 feet AGL
Weather: no significant weather forecast for this period
Text: PROB30
Forecast period: 0000 to 0500 UTC 19 August 2019
Forecast type: TEMPORARY: The following changes expected for less than half the time period
Visibility: missing
Ceiling: 1400 feet AGL
Clouds: broken clouds at 1400 feet AGL
Weather: no significant weather forecast for this period
Text: TEMPO 1900/1905 BKN014
Forecast period: 0300 to 1800 UTC 19 August 2019
Forecast type: BECOMING: Conditions expected to become as follows by 0600 UTC 19 August 2019
Winds: from the ENE (70 degrees) at 14 MPH (12 knots; 6.2 m/s)
Visibility: 6 or more miles 10+ km)
Ceiling: at least 12,000 feet AGL
Clouds: few clouds at 2000 feet AGL
Weather: no significant weather forecast for this period
Text: BECMG 1903/1906 07012KT
Forecast period: 0700 to 1600 UTC 19 August 2019
Forecast type: TEMPORARY: The following changes expected for less than half the time period
Winds: from the E (80 degrees) at 17 MPH (15 knots; 7.7 m/s)
gusting to 30 MPH (26 knots; 13.4 m/s)
Visibility: missing
Ceiling: unknown
Clouds: missing
Weather: no significant weather forecast for this period
Text: TEMPO 1907/1916 08015G26KT
Forecast period: 1800 UTC 19 August 2019 to 0000 UTC 20 August 2019
Forecast type: BECOMING: Conditions expected to become as follows by 2000 UTC 19 August 2019
Winds: from the E (80 degrees) at 9 MPH (8 knots; 4.1 m/s)
Visibility: 6 or more miles 10+ km)
Ceiling: at least 12,000 feet AGL
Clouds: few clouds at 2000 feet AGL
Weather: no significant weather forecast for this period